Time;durP1;ratioP1;P1;durP2;ratioP2;P2;SDS_P1;SDS_P2;PMS_P1;PMS_P2;Temp;Humidity;BMP_temperature;BMP_pressure;BME280_temperature;BME280_humidity;BME280_pressure;Samples;Min_cycle;Max_cycle;Signal;HPM_P1;HPM_P2
2021/04/11 18:44:18;;;;;;;55.67;30.05;;;;;;;;;;5105959;27;20400;-65
2021/04/11 18:46:47;;;;;;;47.33;25.02;;;;;;;;;;5107054;28;20118;-66
2021/04/11 18:49:27;;;;;;;46.75;25.05;;;;;;;;;;5107030;28;20028;-66
2021/04/11 18:51:56;;;;;;;59.63;32.80;;;;;;;;;;5107038;28;20031;-68
2021/04/11 18:54:22;;;;;;;62.38;33.20;;;;;;;;;;5106942;28;20490;-66
2021/04/11 18:56:52;;;;;;;59.47;31.95;;;;;;;;;;5105826;28;20039;-64
2021/04/11 18:59:31;;;;;;;60.08;34.15;;;;;;;;;;5106172;28;20023;-66
2021/04/11 19:01:57;;;;;;;59.30;32.83;;;;;;;;;;5101034;28;20052;-67
2021/04/11 19:04:42;;;;;;;51.95;27.20;;;;;;;;;;5106287;28;20081;-65
2021/04/11 19:07:10;;;;;;;49.33;27.83;;;;;;;;;;5105166;28;20039;-66
2021/04/11 19:09:40;;;;;;;50.60;27.95;;;;;;;;;;5098070;28;20029;-68
2021/04/11 19:12:09;;;;;;;48.10;25.23;;;;;;;;;;5086369;28;20093;-66
2021/04/11 19:14:39;;;;;;;49.80;24.13;;;;;;;;;;5087331;28;20123;-72
2021/04/11 19:17:05;;;;;;;47.40;24.67;;;;;;;;;;5085747;28;20031;-66
2021/04/11 19:19:44;;;;;;;47.75;24.27;;;;;;;;;;5086825;28;20450;-72
2021/04/11 19:22:40;;;;;;;46.08;25.33;;;;;;;;;;5086969;28;20031;-69
2021/04/11 19:25:21;;;;;;;67.28;35.17;;;;;;;;;;5086975;28;20043;-69
2021/04/11 19:28:06;;;;;;;62.78;31.88;;;;;;;;;;5086279;28;20077;-66
2021/04/11 19:30:41;;;;;;;65.32;33.60;;;;;;;;;;5099639;28;20035;-70
2021/04/11 19:33:26;;;;;;;66.43;32.50;;;;;;;;;;5106969;28;20032;-66
2021/04/11 19:36:11;;;;;;;64.90;34.40;;;;;;;;;;5094697;28;20071;-68
2021/04/11 19:38:37;;;;;;;57.55;30.42;;;;;;;;;;5066414;28;20033;-66
2021/04/11 19:41:06;;;;;;;50.40;27.45;;;;;;;;;;5068938;28;20029;-78
2021/04/11 19:43:51;;;;;;;51.40;28.67;;;;;;;;;;5087113;28;20525;-77
2021/04/11 19:46:23;;;;;;;52.25;28.05;;;;;;;;;;5079779;28;20079;-67
2021/04/11 19:48:55;;;;;;;57.60;29.92;;;;;;;;;;5084620;28;20024;-67
2021/04/11 19:51:27;;;;;;;59.45;33.97;;;;;;;;;;5084159;28;20028;-78
2021/04/11 19:54:07;;;;;;;69.68;37.75;;;;;;;;;;5080577;28;20529;-66
2021/04/11 19:56:53;;;;;;;62.58;33.13;;;;;;;;;;5073796;28;20110;-65
2021/04/11 19:59:38;;;;;;;76.78;37.30;;;;;;;;;;5072941;28;20029;-65
2021/04/11 20:02:09;;;;;;;66.90;35.58;;;;;;;;;;5073028;28;20082;-64
2021/04/11 20:04:35;;;;;;;63.42;33.08;;;;;;;;;;5072758;28;20444;-70
2021/04/11 20:07:01;;;;;;;51.10;28.65;;;;;;;;;;5072679;28;20068;-65
2021/04/11 20:09:29;;;;;;;52.80;27.73;;;;;;;;;;5072704;28;20126;-65
2021/04/11 20:11:55;;;;;;;51.95;26.98;;;;;;;;;;5073109;28;20043;-65
2021/04/11 20:14:51;;;;;;;50.63;27.25;;;;;;;;;;5072787;28;20028;-67
2021/04/11 20:17:40;;;;;;;56.65;31.35;;;;;;;;;;5029736;28;20103;-65
2021/04/11 20:20:17;;;;;;;53.88;28.73;;;;;;;;;;5022741;28;20052;-65
2021/04/11 20:22:50;;;;;;;51.80;27.15;;;;;;;;;;5024524;28;20501;-66
2021/04/11 20:25:39;;;;;;;55.03;27.52;;;;;;;;;;5024709;28;20022;-67
2021/04/11 20:28:24;;;;;;;55.47;28.80;;;;;;;;;;5029542;28;20513;-67
2021/04/11 20:31:17;;;;;;;54.78;26.83;;;;;;;;;;5032295;28;20036;-65
2021/04/11 20:34:00;;;;;;;50.22;25.27;;;;;;;;;;5037137;28;20100;-67
2021/04/11 20:36:45;;;;;;;46.67;23.27;;;;;;;;;;5037616;28;20101;-66
2021/04/11 20:39:29;;;;;;;43.30;22.73;;;;;;;;;;5034352;28;20137;-67
2021/04/11 20:42:07;;;;;;;43.40;21.88;;;;;;;;;;5029706;28;20057;-68
2021/04/11 20:44:42;;;;;;;40.63;20.33;;;;;;;;;;5029698;28;20501;-68
2021/04/11 20:47:17;;;;;;;42.67;22.17;;;;;;;;;;5029921;28;20510;-67
2021/04/11 20:50:01;;;;;;;41.88;21.25;;;;;;;;;;5029819;28;20515;-68
2021/04/11 20:52:42;;;;;;;41.53;20.08;;;;;;;;;;5029874;28;20053;-67
2021/04/11 20:55:24;;;;;;;32.22;17.63;;;;;;;;;;5072259;28;20104;-68
2021/04/11 20:58:08;;;;;;;31.25;18.02;;;;;;;;;;5071738;28;20025;-68
2021/04/11 21:00:53;;;;;;;35.40;18.95;;;;;;;;;;5071757;28;20090;-68
2021/04/11 21:03:19;;;;;;;43.92;21.35;;;;;;;;;;5071687;28;20395;-69
2021/04/11 21:05:45;;;;;;;43.85;23.20;;;;;;;;;;5070882;28;20035;-68
2021/04/11 21:08:30;;;;;;;52.08;24.63;;;;;;;;;;5071616;28;20024;-68
2021/04/11 21:10:56;;;;;;;47.08;24.42;;;;;;;;;;5071787;28;20141;-67
2021/04/11 21:13:32;;;;;;;44.53;24.55;;;;;;;;;;5071634;28;20063;-67
2021/04/11 21:16:10;;;;;;;45.95;24.58;;;;;;;;;;5071874;28;20103;-67
2021/04/11 21:18:57;;;;;;;49.58;26.98;;;;;;;;;;5071606;28;20476;-68
2021/04/11 21:21:26;;;;;;;52.60;28.85;;;;;;;;;;5071797;28;20388;-69
2021/04/11 21:24:08;;;;;;;55.60;32.15;;;;;;;;;;5071519;28;20048;-68
2021/04/11 21:26:44;;;;;;;61.33;33.63;;;;;;;;;;5071485;28;20041;-68
